sensor_id;sensor_type;location;lat;lon;timestamp;pressure;altitude;pressure_sealevel;temperature;humidity
61908;BME280;47864;52.526;19.672;2023-04-15T00:00:30;100061.28;;;11.04;100.00
61908;BME280;47864;52.526;19.672;2023-04-15T00:02:31;100056.31;;;11.01;100.00
61908;BME280;47864;52.526;19.672;2023-04-15T00:04:33;100066.09;;;11.17;100.00
61908;BME280;47864;52.526;19.672;2023-04-15T00:06:36;100051.50;;;11.04;100.00
61908;BME280;47864;52.526;19.672;2023-04-15T00:08:38;100060.13;;;11.15;100.00
61908;BME280;47864;52.526;19.672;2023-04-15T00:10:39;100056.63;;;11.14;100.00
61908;BME280;47864;52.526;19.672;2023-04-15T00:12:41;100062.09;;;11.13;100.00
61908;BME280;47864;52.526;19.672;2023-04-15T00:14:42;100041.06;;;10.95;100.00
61908;BME280;47864;52.526;19.672;2023-04-15T00:16:44;100057.97;;;11.10;100.00
61908;BME280;47864;52.526;19.672;2023-04-15T00:18:45;100061.78;;;11.24;100.00
61908;BME280;47864;52.526;19.672;2023-04-15T00:20:47;100051.50;;;11.13;100.00
61908;BME280;47864;52.526;19.672;2023-04-15T00:22:48;100039.22;;;10.87;100.00
61908;BME280;47864;52.526;19.672;2023-04-15T00:24:53;100035.75;;;11.03;100.00
61908;BME280;47864;52.526;19.672;2023-04-15T00:26:55;100027.94;;;11.10;100.00
61908;BME280;47864;52.526;19.672;2023-04-15T00:28:57;100009.72;;;10.82;100.00
61908;BME280;47864;52.526;19.672;2023-04-15T00:30:59;100034.09;;;11.02;100.00
61908;BME280;47864;52.526;19.672;2023-04-15T00:33:00;100035.78;;;10.95;100.00
61908;BME280;47864;52.526;19.672;2023-04-15T00:35:02;100040.56;;;11.07;100.00
61908;BME280;47864;52.526;19.672;2023-04-15T00:37:03;100028.97;;;10.92;100.00
61908;BME280;47864;52.526;19.672;2023-04-15T00:39:05;99997.13;;;10.84;100.00
61908;BME280;47864;52.526;19.672;2023-04-15T00:41:07;100016.38;;;10.86;100.00
61908;BME280;47864;52.526;19.672;2023-04-15T00:43:09;100030.91;;;11.15;100.00
61908;BME280;47864;52.526;19.672;2023-04-15T00:45:11;100043.88;;;11.10;100.00
61908;BME280;47864;52.526;19.672;2023-04-15T00:47:13;100045.84;;;11.16;100.00
61908;BME280;47864;52.526;19.672;2023-04-15T00:49:15;100038.88;;;11.15;100.00
61908;BME280;47864;52.526;19.672;2023-04-15T00:51:17;100041.53;;;11.23;100.00
61908;BME280;47864;52.526;19.672;2023-04-15T00:53:18;100046.00;;;11.14;100.00
61908;BME280;47864;52.526;19.672;2023-04-15T00:55:20;100040.53;;;11.16;100.00
61908;BME280;47864;52.526;19.672;2023-04-15T00:57:21;100028.91;;;11.25;100.00
61908;BME280;47864;52.526;19.672;2023-04-15T00:59:23;100037.66;;;11.50;100.00
61908;BME280;47864;52.526;19.672;2023-04-15T01:01:25;100047.16;;;11.36;100.00
61908;BME280;47864;52.526;19.672;2023-04-15T01:03:28;100040.53;;;11.24;100.00
61908;BME280;47864;52.526;19.672;2023-04-15T01:05:30;100034.09;;;11.10;100.00
61908;BME280;47864;52.526;19.672;2023-04-15T01:07:32;100034.09;;;11.18;100.00
61908;BME280;47864;52.526;19.672;2023-04-15T01:09:34;100040.34;;;11.33;100.00
61908;BME280;47864;52.526;19.672;2023-04-15T01:11:36;100033.53;;;11.31;100.00
61908;BME280;47864;52.526;19.672;2023-04-15T01:13:37;100029.25;;;11.14;100.00
61908;BME280;47864;52.526;19.672;2023-04-15T01:15:39;100034.94;;;11.11;100.00
61908;BME280;47864;52.526;19.672;2023-04-15T01:17:41;100031.59;;;11.09;100.00
61908;BME280;47864;52.526;19.672;2023-04-15T01:19:42;100016.34;;;11.11;100.00
61908;BME280;47864;52.526;19.672;2023-04-15T01:21:44;100034.41;;;11.07;100.00
61908;BME280;47864;52.526;19.672;2023-04-15T01:23:46;100032.25;;;11.27;100.00
61908;BME280;47864;52.526;19.672;2023-04-15T01:25:48;100039.38;;;11.26;100.00
61908;BME280;47864;52.526;19.672;2023-04-15T01:27:50;100041.66;;;11.37;100.00
61908;BME280;47864;52.526;19.672;2023-04-15T01:29:52;100039.03;;;11.21;100.00
61908;BME280;47864;52.526;19.672;2023-04-15T01:31:54;100023.78;;;11.23;100.00
61908;BME280;47864;52.526;19.672;2023-04-15T01:33:57;100014.81;;;11.24;100.00
61908;BME280;47864;52.526;19.672;2023-04-15T01:35:58;100021.25;;;11.30;100.00
61908;BME280;47864;52.526;19.672;2023-04-15T01:38:10;100046.47;;;11.42;100.00
61908;BME280;47864;52.526;19.672;2023-04-15T01:40:12;100024.56;;;11.40;100.00
61908;BME280;47864;52.526;19.672;2023-04-15T01:42:13;100036.06;;;11.71;100.00
61908;BME280;47864;52.526;19.672;2023-04-15T01:44:15;100022.16;;;11.61;100.00
61908;BME280;47864;52.526;19.672;2023-04-15T01:46:16;100041.41;;;11.63;100.00
61908;BME280;47864;52.526;19.672;2023-04-15T01:48:18;100032.00;;;11.61;100.00
61908;BME280;47864;52.526;19.672;2023-04-15T01:50:20;100036.81;;;11.49;100.00
61908;BME280;47864;52.526;19.672;2023-04-15T01:52:21;100034.97;;;11.58;100.00
61908;BME280;47864;52.526;19.672;2023-04-15T01:54:23;100029.63;;;11.66;100.00
61908;BME280;47864;52.526;19.672;2023-04-15T01:56:24;100025.19;;;11.50;100.00
61908;BME280;47864;52.526;19.672;2023-04-15T01:58:25;100029.13;;;11.62;100.00
61908;BME280;47864;52.526;19.672;2023-04-15T02:00:27;100042.63;;;11.53;100.00
61908;BME280;47864;52.526;19.672;2023-04-15T02:02:29;100038.47;;;11.50;100.00
61908;BME280;47864;52.526;19.672;2023-04-15T02:04:30;100035.69;;;11.43;100.00
61908;BME280;47864;52.526;19.672;2023-04-15T02:06:32;100048.44;;;11.48;100.00
61908;BME280;47864;52.526;19.672;2023-04-15T02:08:33;100043.66;;;11.43;100.00
61908;BME280;47864;52.526;19.672;2023-04-15T02:10:35;100038.16;;;11.45;100.00
61908;BME280;47864;52.526;19.672;2023-04-15T02:12:36;100042.66;;;11.44;100.00
61908;BME280;47864;52.526;19.672;2023-04-15T02:14:38;100021.28;;;11.22;100.00
61908;BME280;47864;52.526;19.672;2023-04-15T02:16:40;100022.28;;;11.21;100.00
61908;BME280;47864;52.526;19.672;2023-04-15T02:18:42;100037.19;;;11.38;100.00
61908;BME280;47864;52.526;19.672;2023-04-15T02:20:44;100033.66;;;11.54;100.00
61908;BME280;47864;52.526;19.672;2023-04-15T02:22:45;100038.00;;;11.38;100.00
61908;BME280;47864;52.526;19.672;2023-04-15T02:24:47;100046.78;;;11.47;100.00
61908;BME280;47864;52.526;19.672;2023-04-15T02:26:48;100045.31;;;11.28;100.00
61908;BME280;47864;52.526;19.672;2023-04-15T02:28:50;100033.69;;;11.37;100.00
61908;BME280;47864;52.526;19.672;2023-04-15T02:30:51;100041.13;;;11.50;100.00
61908;BME280;47864;52.526;19.672;2023-04-15T02:32:53;100044.53;;;11.20;100.00
61908;BME280;47864;52.526;19.672;2023-04-15T02:34:55;100031.72;;;11.23;100.00
61908;BME280;47864;52.526;19.672;2023-04-15T02:36:56;100028.59;;;11.28;100.00
61908;BME280;47864;52.526;19.672;2023-04-15T02:38:58;100047.50;;;11.25;100.00
61908;BME280;47864;52.526;19.672;2023-04-15T02:41:00;100046.81;;;11.39;100.00
61908;BME280;47864;52.526;19.672;2023-04-15T02:43:01;100049.59;;;11.45;100.00
61908;BME280;47864;52.526;19.672;2023-04-15T02:45:04;100048.34;;;11.17;100.00
61908;BME280;47864;52.526;19.672;2023-04-15T02:47:06;100024.47;;;11.01;100.00
61908;BME280;47864;52.526;19.672;2023-04-15T02:49:08;100044.38;;;10.97;100.00
61908;BME280;47864;52.526;19.672;2023-04-15T02:51:13;100039.38;;;11.18;100.00
61908;BME280;47864;52.526;19.672;2023-04-15T02:53:15;100034.41;;;11.07;100.00
61908;BME280;47864;52.526;19.672;2023-04-15T02:55:17;100046.72;;;10.92;100.00
61908;BME280;47864;52.526;19.672;2023-04-15T02:57:19;100056.31;;;11.01;100.00
61908;BME280;47864;52.526;19.672;2023-04-15T02:59:20;100046.19;;;10.96;100.00
61908;BME280;47864;52.526;19.672;2023-04-15T03:01:22;100025.31;;;10.77;100.00
61908;BME280;47864;52.526;19.672;2023-04-15T03:03:24;100037.75;;;10.77;100.00
61908;BME280;47864;52.526;19.672;2023-04-15T03:05:25;100052.19;;;10.82;100.00
61908;BME280;47864;52.526;19.672;2023-04-15T03:07:27;100057.66;;;10.89;100.00
61908;BME280;47864;52.526;19.672;2023-04-15T03:09:28;100061.97;;;10.90;100.00
61908;BME280;47864;52.526;19.672;2023-04-15T03:11:31;100063.63;;;10.99;100.00
61908;BME280;47864;52.526;19.672;2023-04-15T03:13:34;100043.38;;;10.74;100.00
61908;BME280;47864;52.526;19.672;2023-04-15T03:15:36;100057.66;;;10.81;100.00
61908;BME280;47864;52.526;19.672;2023-04-15T03:17:37;100058.47;;;10.81;100.00
61908;BME280;47864;52.526;19.672;2023-04-15T03:19:39;100049.50;;;10.42;100.00
61908;BME280;47864;52.526;19.672;2023-04-15T03:21:41;100059.28;;;10.65;100.00
61908;BME280;47864;52.526;19.672;2023-04-15T03:23:42;100022.31;;;10.48;100.00
61908;BME280;47864;52.526;19.672;2023-04-15T03:25:44;100040.88;;;10.72;100.00
61908;BME280;47864;52.526;19.672;2023-04-15T03:27:45;100061.78;;;10.99;100.00
61908;BME280;47864;52.526;19.672;2023-04-15T03:29:47;100063.09;;;10.95;100.00
61908;BME280;47864;52.526;19.672;2023-04-15T03:31:48;100049.19;;;10.77;100.00
61908;BME280;47864;52.526;19.672;2023-04-15T03:33:50;100060.13;;;10.66;100.00
61908;BME280;47864;52.526;19.672;2023-04-15T03:35:52;100060.44;;;10.71;100.00
61908;BME280;47864;52.526;19.672;2023-04-15T03:37:53;100047.38;;;10.70;100.00
61908;BME280;47864;52.526;19.672;2023-04-15T03:39:55;100049.34;;;10.67;100.00
61908;BME280;47864;52.526;19.672;2023-04-15T03:41:57;100054.66;;;10.76;100.00
61908;BME280;47864;52.526;19.672;2023-04-15T03:43:59;100046.69;;;10.51;100.00
61908;BME280;47864;52.526;19.672;2023-04-15T03:46:01;100054.81;;;10.58;100.00
61908;BME280;47864;52.526;19.672;2023-04-15T03:48:02;100050.84;;;10.62;100.00
61908;BME280;47864;52.526;19.672;2023-04-15T03:50:17;100054.16;;;10.72;100.00
61908;BME280;47864;52.526;19.672;2023-04-15T03:52:19;100063.41;;;10.44;100.00
61908;BME280;47864;52.526;19.672;2023-04-15T03:54:20;100062.09;;;10.56;100.00
61908;BME280;47864;52.526;19.672;2023-04-15T03:56:22;100059.59;;;10.54;100.00
61908;BME280;47864;52.526;19.672;2023-04-15T03:58:23;100062.91;;;10.48;100.00
61908;BME280;47864;52.526;19.672;2023-04-15T04:00:25;100069.22;;;10.47;100.00
61908;BME280;47864;52.526;19.672;2023-04-15T04:02:26;100054.97;;;10.48;100.00
61908;BME280;47864;52.526;19.672;2023-04-15T04:04:28;100078.69;;;10.74;100.00
61908;BME280;47864;52.526;19.672;2023-04-15T04:06:30;100068.25;;;10.89;100.00
61908;BME280;47864;52.526;19.672;2023-04-15T04:08:32;100070.72;;;10.58;100.00
61908;BME280;47864;52.526;19.672;2023-04-15T04:10:33;100062.78;;;10.58;100.00
61908;BME280;47864;52.526;19.672;2023-04-15T04:12:35;100074.06;;;10.60;100.00
61908;BME280;47864;52.526;19.672;2023-04-15T04:14:36;100069.22;;;10.55;100.00
61908;BME280;47864;52.526;19.672;2023-04-15T04:16:38;100059.97;;;10.67;100.00
61908;BME280;47864;52.526;19.672;2023-04-15T04:18:39;100084.00;;;10.82;100.00
61908;BME280;47864;52.526;19.672;2023-04-15T04:20:41;100079.69;;;10.73;100.00
61908;BME280;47864;52.526;19.672;2023-04-15T04:22:43;100070.41;;;10.69;100.00
61908;BME280;47864;52.526;19.672;2023-04-15T04:24:44;100076.53;;;10.61;100.00
61908;BME280;47864;52.526;19.672;2023-04-15T04:26:46;100055.63;;;10.42;100.00
61908;BME280;47864;52.526;19.672;2023-04-15T04:28:47;100068.19;;;10.32;100.00
61908;BME280;47864;52.526;19.672;2023-04-15T04:30:49;100067.19;;;10.33;100.00
61908;BME280;47864;52.526;19.672;2023-04-15T04:32:50;100081.97;;;10.36;100.00
61908;BME280;47864;52.526;19.672;2023-04-15T04:34:52;100078.63;;;10.25;100.00
61908;BME280;47864;52.526;19.672;2023-04-15T04:36:54;100065.63;;;10.14;100.00
61908;BME280;47864;52.526;19.672;2023-04-15T04:38:55;100069.00;;;10.24;100.00
61908;BME280;47864;52.526;19.672;2023-04-15T04:40:57;100062.81;;;10.16;100.00
61908;BME280;47864;52.526;19.672;2023-04-15T04:42:59;100077.34;;;10.38;100.00
61908;BME280;47864;52.526;19.672;2023-04-15T04:45:00;100072.69;;;10.40;100.00
61908;BME280;47864;52.526;19.672;2023-04-15T04:47:02;100082.31;;;10.49;100.00
61908;BME280;47864;52.526;19.672;2023-04-15T04:49:03;100077.00;;;10.49;100.00
61908;BME280;47864;52.526;19.672;2023-04-15T04:51:05;100071.84;;;10.39;100.00
61908;BME280;47864;52.526;19.672;2023-04-15T04:53:07;100076.16;;;10.40;100.00
61908;BME280;47864;52.526;19.672;2023-04-15T04:55:09;100063.38;;;10.27;100.00
61908;BME280;47864;52.526;19.672;2023-04-15T04:57:10;100078.97;;;10.39;100.00
61908;BME280;47864;52.526;19.672;2023-04-15T04:59:12;100075.66;;;10.37;100.00
61908;BME280;47864;52.526;19.672;2023-04-15T05:01:13;100064.38;;;10.26;100.00
61908;BME280;47864;52.526;19.672;2023-04-15T05:03:15;100084.94;;;10.41;100.00
61908;BME280;47864;52.526;19.672;2023-04-15T05:05:17;100083.97;;;10.42;100.00
61908;BME280;47864;52.526;19.672;2023-04-15T05:07:19;100081.28;;;10.34;100.00
61908;BME280;47864;52.526;19.672;2023-04-15T05:09:20;100084.56;;;10.19;100.00
61908;BME280;47864;52.526;19.672;2023-04-15T05:11:22;100062.56;;;10.35;100.00
61908;BME280;47864;52.526;19.672;2023-04-15T05:13:23;100080.47;;;10.41;100.00
61908;BME280;47864;52.526;19.672;2023-04-15T05:15:25;100078.00;;;10.56;100.00
61908;BME280;47864;52.526;19.672;2023-04-15T05:17:26;100085.47;;;10.52;100.00
61908;BME280;47864;52.526;19.672;2023-04-15T05:19:28;100086.63;;;10.50;100.00
61908;BME280;47864;52.526;19.672;2023-04-15T05:21:29;100083.97;;;10.42;100.00
61908;BME280;47864;52.526;19.672;2023-04-15T05:23:31;100088.28;;;10.43;100.00
61908;BME280;47864;52.526;19.672;2023-04-15T05:25:33;100089.44;;;10.56;100.00
61908;BME280;47864;52.526;19.672;2023-04-15T05:27:34;100082.47;;;10.55;100.00
61908;BME280;47864;52.526;19.672;2023-04-15T05:29:36;100089.13;;;10.59;100.00
61908;BME280;47864;52.526;19.672;2023-04-15T05:31:37;100090.44;;;10.63;100.00
61908;BME280;47864;52.526;19.672;2023-04-15T05:33:39;100084.28;;;10.47;100.00
61908;BME280;47864;52.526;19.672;2023-04-15T05:35:40;100086.97;;;10.55;100.00
61908;BME280;47864;52.526;19.672;2023-04-15T05:37:42;100092.59;;;10.52;100.00
61908;BME280;47864;52.526;19.672;2023-04-15T05:39:44;100086.44;;;10.43;100.00
61908;BME280;47864;52.526;19.672;2023-04-15T05:41:45;100094.28;;;10.53;100.00
61908;BME280;47864;52.526;19.672;2023-04-15T05:43:47;100089.28;;;10.50;100.00
61908;BME280;47864;52.526;19.672;2023-04-15T05:45:48;100087.47;;;10.58;100.00
61908;BME280;47864;52.526;19.672;2023-04-15T05:47:50;100078.69;;;10.58;100.00
61908;BME280;47864;52.526;19.672;2023-04-15T05:49:51;100093.28;;;10.62;100.00
61908;BME280;47864;52.526;19.672;2023-04-15T05:51:53;100093.44;;;10.60;100.00
61908;BME280;47864;52.526;19.672;2023-04-15T05:53:54;100080.81;;;10.54;100.00
61908;BME280;47864;52.526;19.672;2023-04-15T05:55:56;100080.34;;;10.51;100.00
61908;BME280;47864;52.526;19.672;2023-04-15T05:57:57;100092.94;;;10.65;100.00
61908;BME280;47864;52.526;19.672;2023-04-15T05:59:59;100098.63;;;10.86;100.00
61908;BME280;47864;52.526;19.672;2023-04-15T06:02:00;100107.06;;;10.90;100.00
61908;BME280;47864;52.526;19.672;2023-04-15T06:04:01;100095.94;;;10.54;100.00
61908;BME280;47864;52.526;19.672;2023-04-15T06:06:03;100087.31;;;10.52;100.00
61908;BME280;47864;52.526;19.672;2023-04-15T06:08:05;100091.28;;;10.72;100.00
61908;BME280;47864;52.526;19.672;2023-04-15T06:10:07;100101.91;;;10.80;100.00
61908;BME280;47864;52.526;19.672;2023-04-15T06:12:08;100105.56;;;10.95;100.00
61908;BME280;47864;52.526;19.672;2023-04-15T06:14:10;100101.91;;;10.72;100.00
61908;BME280;47864;52.526;19.672;2023-04-15T06:16:11;100080.19;;;10.60;100.00
61908;BME280;47864;52.526;19.672;2023-04-15T06:18:13;100103.72;;;10.63;100.00
61908;BME280;47864;52.526;19.672;2023-04-15T06:20:14;100098.94;;;10.83;100.00
61908;BME280;47864;52.526;19.672;2023-04-15T06:22:16;100108.22;;;10.79;100.00
61908;BME280;47864;52.526;19.672;2023-04-15T06:24:17;100109.22;;;10.62;100.00
61908;BME280;47864;52.526;19.672;2023-04-15T06:26:19;100078.66;;;10.42;100.00
61908;BME280;47864;52.526;19.672;2023-04-15T06:28:20;100116.66;;;10.75;100.00
61908;BME280;47864;52.526;19.672;2023-04-15T06:30:22;100108.56;;;10.76;100.00
61908;BME280;47864;52.526;19.672;2023-04-15T06:32:25;100118.78;;;10.63;100.00
61908;BME280;47864;52.526;19.672;2023-04-15T06:34:26;100107.56;;;10.77;100.00
61908;BME280;47864;52.526;19.672;2023-04-15T06:36:28;100120.19;;;10.91;100.00
61908;BME280;47864;52.526;19.672;2023-04-15T06:38:29;100110.22;;;10.69;100.00
61908;BME280;47864;52.526;19.672;2023-04-15T06:40:31;100121.97;;;10.66;100.00
61908;BME280;47864;52.526;19.672;2023-04-15T06:42:33;100118.78;;;10.55;100.00
61908;BME280;47864;52.526;19.672;2023-04-15T06:44:35;100117.31;;;10.60;100.00
61908;BME280;47864;52.526;19.672;2023-04-15T06:46:37;100124.63;;;10.66;100.00
61908;BME280;47864;52.526;19.672;2023-04-15T06:48:38;100127.72;;;10.46;100.00
61908;BME280;47864;52.526;19.672;2023-04-15T06:50:40;100126.78;;;10.87;100.00
61908;BME280;47864;52.526;19.672;2023-04-15T06:52:41;100128.63;;;10.71;100.00
61908;BME280;47864;52.526;19.672;2023-04-15T06:54:43;100132.44;;;10.76;100.00
61908;BME280;47864;52.526;19.672;2023-04-15T06:56:45;100109.84;;;10.56;100.00
61908;BME280;47864;52.526;19.672;2023-04-15T06:58:46;100119.81;;;10.62;100.00
61908;BME280;47864;52.526;19.672;2023-04-15T07:00:48;100132.06;;;10.71;100.00
61908;BME280;47864;52.526;19.672;2023-04-15T07:02:50;100137.75;;;10.84;100.00
61908;BME280;47864;52.526;19.672;2023-04-15T07:04:51;100128.78;;;10.69;100.00
61908;BME280;47864;52.526;19.672;2023-04-15T07:06:53;100139.38;;;10.69;100.00
61908;BME280;47864;52.526;19.672;2023-04-15T07:08:54;100127.13;;;10.68;100.00
61908;BME280;47864;52.526;19.672;2023-04-15T07:10:56;100144.72;;;10.77;100.00
61908;BME280;47864;52.526;19.672;2023-04-15T07:12:57;100119.00;;;10.70;100.00
61908;BME280;47864;52.526;19.672;2023-04-15T07:14:59;100142.38;;;10.82;100.00
61908;BME280;47864;52.526;19.672;2023-04-15T07:17:01;100150.38;;;10.98;100.00
61908;BME280;47864;52.526;19.672;2023-04-15T07:19:02;100121.16;;;10.82;100.00
61908;BME280;47864;52.526;19.672;2023-04-15T07:21:04;100140.75;;;11.05;100.00
61908;BME280;47864;52.526;19.672;2023-04-15T07:23:06;100153.69;;;11.00;100.00
61908;BME280;47864;52.526;19.672;2023-04-15T07:25:07;100145.72;;;11.00;100.00
61908;BME280;47864;52.526;19.672;2023-04-15T07:27:09;100137.09;;;10.98;100.00
61908;BME280;47864;52.526;19.672;2023-04-15T07:29:11;100136.09;;;10.99;100.00
61908;BME280;47864;52.526;19.672;2023-04-15T07:31:12;100154.69;;;11.07;100.00
61908;BME280;47864;52.526;19.672;2023-04-15T07:33:14;100133.09;;;10.78;100.00
61908;BME280;47864;52.526;19.672;2023-04-15T07:35:15;100160.47;;;10.71;100.00
61908;BME280;47864;52.526;19.672;2023-04-15T07:37:17;100153.78;;;10.66;100.00
61908;BME280;47864;52.526;19.672;2023-04-15T07:39:18;100154.50;;;10.77;100.00
61908;BME280;47864;52.526;19.672;2023-04-15T07:41:20;100138.72;;;10.67;100.00
61908;BME280;47864;52.526;19.672;2023-04-15T07:43:21;100144.72;;;10.85;100.00
61908;BME280;47864;52.526;19.672;2023-04-15T07:45:23;100148.22;;;10.94;100.00
61908;BME280;47864;52.526;19.672;2023-04-15T07:47:24;100132.06;;;10.71;100.00
61908;BME280;47864;52.526;19.672;2023-04-15T07:49:26;100149.03;;;10.86;100.00
61908;BME280;47864;52.526;19.672;2023-04-15T07:51:27;100146.72;;;10.91;100.00
61908;BME280;47864;52.526;19.672;2023-04-15T07:53:29;100149.34;;;10.83;100.00
61908;BME280;47864;52.526;19.672;2023-04-15T07:55:30;100157.63;;;10.88;100.00
61908;BME280;47864;52.526;19.672;2023-04-15T07:57:32;100138.72;;;10.67;100.00
61908;BME280;47864;52.526;19.672;2023-04-15T07:59:33;100152.66;;;10.77;100.00
61908;BME280;47864;52.526;19.672;2023-04-15T08:01:35;100139.03;;;10.72;100.00
61908;BME280;47864;52.526;19.672;2023-04-15T08:03:36;100155.66;;;10.90;100.00
61908;BME280;47864;52.526;19.672;2023-04-15T08:05:38;100160.97;;;10.98;100.00
61908;BME280;47864;52.526;19.672;2023-04-15T08:07:40;100168.28;;;10.96;100.00
61908;BME280;47864;52.526;19.672;2023-04-15T08:09:41;100149.53;;;11.06;100.00
61908;BME280;47864;52.526;19.672;2023-04-15T08:11:44;100149.03;;;10.86;100.00
61908;BME280;47864;52.526;19.672;2023-04-15T08:13:46;100156.50;;;10.99;100.00
61908;BME280;47864;52.526;19.672;2023-04-15T08:15:56;100158.31;;;10.90;100.00
61908;BME280;47864;52.526;19.672;2023-04-15T08:18:13;100162.31;;;10.94;100.00
61908;BME280;47864;52.526;19.672;2023-04-15T08:20:15;100160.50;;;11.11;100.00
61908;BME280;47864;52.526;19.672;2023-04-15T08:22:16;100159.00;;;10.92;100.00
61908;BME280;47864;52.526;19.672;2023-04-15T08:24:19;100158.47;;;10.97;100.00
61908;BME280;47864;52.526;19.672;2023-04-15T08:26:21;100165.28;;;10.99;100.00
61908;BME280;47864;52.526;19.672;2023-04-15T08:28:22;100168.28;;;11.13;100.00
61908;BME280;47864;52.526;19.672;2023-04-15T08:30:24;100158.34;;;11.15;100.00
61908;BME280;47864;52.526;19.672;2023-04-15T08:32:26;100155.81;;;10.81;100.00
61908;BME280;47864;52.526;19.672;2023-04-15T08:34:27;100162.75;;;10.65;100.00
61908;BME280;47864;52.526;19.672;2023-04-15T08:36:30;100166.75;;;10.78;100.00
61908;BME280;47864;52.526;19.672;2023-04-15T08:38:31;100165.97;;;10.93;100.00
61908;BME280;47864;52.526;19.672;2023-04-15T08:40:44;100161.28;;;10.87;100.00
61908;BME280;47864;52.526;19.672;2023-04-15T08:42:48;100164.59;;;10.81;100.00
61908;BME280;47864;52.526;19.672;2023-04-15T08:44:53;100150.81;;;10.61;100.00
61908;BME280;47864;52.526;19.672;2023-04-15T08:46:55;100145.03;;;10.74;100.00
61908;BME280;47864;52.526;19.672;2023-04-15T08:48:57;100164.44;;;10.91;100.00
61908;BME280;47864;52.526;19.672;2023-04-15T08:50:59;100161.81;;;11.07;100.00
61908;BME280;47864;52.526;19.672;2023-04-15T08:53:01;100167.81;;;11.09;100.00
61908;BME280;47864;52.526;19.672;2023-04-15T08:55:03;100159.34;;;11.22;100.00
61908;BME280;47864;52.526;19.672;2023-04-15T08:57:05;100174.91;;;10.92;100.00
61908;BME280;47864;52.526;19.672;2023-04-15T08:59:06;100162.78;;;10.82;100.00
61908;BME280;47864;52.526;19.672;2023-04-15T09:01:10;100167.13;;;11.07;100.00
61908;BME280;47864;52.526;19.672;2023-04-15T09:03:12;100149.34;;;10.83;100.00
61908;BME280;47864;52.526;19.672;2023-04-15T09:05:14;100174.63;;;11.20;100.00
61908;BME280;47864;52.526;19.672;2023-04-15T09:07:15;100161.66;;;11.09;100.00
61908;BME280;47864;52.526;19.672;2023-04-15T09:09:17;100154.69;;;11.16;100.00
61908;BME280;47864;52.526;19.672;2023-04-15T09:11:20;100158.47;;;10.89;100.00
61908;BME280;47864;52.526;19.672;2023-04-15T09:13:22;100173.59;;;11.04;100.00
61908;BME280;47864;52.526;19.672;2023-04-15T09:15:24;100174.75;;;11.02;100.00
61908;BME280;47864;52.526;19.672;2023-04-15T09:17:26;100165.59;;;10.88;100.00
61908;BME280;47864;52.526;19.672;2023-04-15T09:19:28;100167.28;;;11.22;100.00
61908;BME280;47864;52.526;19.672;2023-04-15T09:21:30;100147.25;;;11.27;100.00
61908;BME280;47864;52.526;19.672;2023-04-15T09:23:32;100167.66;;;11.11;100.00
61908;BME280;47864;52.526;19.672;2023-04-15T09:25:33;100163.66;;;11.15;100.00
61908;BME280;47864;52.526;19.672;2023-04-15T09:27:35;100174.25;;;11.15;100.00
61908;BME280;47864;52.526;19.672;2023-04-15T09:29:37;100168.63;;;11.10;100.00
61908;BME280;47864;52.526;19.672;2023-04-15T09:31:39;100152.88;;;11.08;100.00
61908;BME280;47864;52.526;19.672;2023-04-15T09:33:54;100166.00;;;11.26;100.00
61908;BME280;47864;52.526;19.672;2023-04-15T09:36:00;100164.81;;;11.28;100.00
61908;BME280;47864;52.526;19.672;2023-04-15T09:38:03;100174.94;;;11.09;100.00
61908;BME280;47864;52.526;19.672;2023-04-15T09:40:05;100173.28;;;11.16;100.00
61908;BME280;47864;52.526;19.672;2023-04-15T09:42:07;100179.94;;;11.36;100.00
61908;BME280;47864;52.526;19.672;2023-04-15T09:44:24;100173.94;;;11.50;100.00
61908;BME280;47864;52.526;19.672;2023-04-15T09:46:43;100178.09;;;11.44;100.00
61908;BME280;47864;52.526;19.672;2023-04-15T09:48:44;100172.28;;;11.09;100.00
61908;BME280;47864;52.526;19.672;2023-04-15T09:50:49;100167.28;;;11.14;100.00
61908;BME280;47864;52.526;19.672;2023-04-15T09:52:51;100180.91;;;11.19;100.00
61908;BME280;47864;52.526;19.672;2023-04-15T09:54:55;100181.25;;;11.16;100.00
61908;BME280;47864;52.526;19.672;2023-04-15T09:57:04;100184.41;;;11.03;100.00
61908;BME280;47864;52.526;19.672;2023-04-15T09:59:06;100186.38;;;11.09;100.00
61908;BME280;47864;52.526;19.672;2023-04-15T10:01:07;100185.22;;;11.03;100.00
61908;BME280;47864;52.526;19.672;2023-04-15T10:03:09;100167.28;;;10.89;100.00
61908;BME280;47864;52.526;19.672;2023-04-15T10:05:14;100191.03;;;11.07;100.00
61908;BME280;47864;52.526;19.672;2023-04-15T10:07:16;100168.78;;;11.00;100.00
61908;BME280;47864;52.526;19.672;2023-04-15T10:09:18;100188.53;;;11.46;100.00
61908;BME280;47864;52.526;19.672;2023-04-15T10:11:21;100188.38;;;11.48;100.00
61908;BME280;47864;52.526;19.672;2023-04-15T10:13:24;100163.66;;;11.31;100.00
61908;BME280;47864;52.526;19.672;2023-04-15T10:15:27;100182.75;;;11.59;100.00
61908;BME280;47864;52.526;19.672;2023-04-15T10:17:29;100189.03;;;11.58;100.00
61908;BME280;47864;52.526;19.672;2023-04-15T10:19:35;100180.56;;;11.22;100.00
61908;BME280;47864;52.526;19.672;2023-04-15T10:21:37;100168.63;;;11.10;100.00